sensor_id;sensor_type;location;lat;lon;timestamp;pressure;altitude;pressure_sealevel;temperature;humidity
47716;BME280;33476;50.984;3.538;2023-12-20T00:00:51;101954.94;;;9.60;71.07
47716;BME280;33476;50.984;3.538;2023-12-20T00:03:16;101961.00;;;9.61;71.33
47716;BME280;33476;50.984;3.538;2023-12-20T00:05:42;101960.09;;;9.62;71.24
47716;BME280;33476;50.984;3.538;2023-12-20T00:08:07;101967.88;;;9.63;71.15
47716;BME280;33476;50.984;3.538;2023-12-20T00:10:32;101967.94;;;9.62;71.18
47716;BME280;33476;50.984;3.538;2023-12-20T00:12:58;101965.28;;;9.63;71.10
47716;BME280;33476;50.984;3.538;2023-12-20T00:15:23;101965.28;;;9.63;71.38
47716;BME280;33476;50.984;3.538;2023-12-20T00:17:48;101961.84;;;9.61;71.08
47716;BME280;33476;50.984;3.538;2023-12-20T00:20:14;101967.94;;;9.62;71.36
47716;BME280;33476;50.984;3.538;2023-12-20T00:22:39;101961.88;;;9.60;71.07
47716;BME280;33476;50.984;3.538;2023-12-20T00:25:05;101967.13;;;9.58;71.09
47716;BME280;33476;50.984;3.538;2023-12-20T00:27:30;101961.84;;;9.61;71.42
47716;BME280;33476;50.984;3.538;2023-12-20T00:29:55;101960.97;;;9.62;71.12
47716;BME280;33476;50.984;3.538;2023-12-20T00:32:21;101960.16;;;9.60;71.32
47716;BME280;33476;50.984;3.538;2023-12-20T00:34:46;101954.13;;;9.56;71.19
47716;BME280;33476;50.984;3.538;2023-12-20T00:37:11;101959.31;;;9.58;71.38
47716;BME280;33476;50.984;3.538;2023-12-20T00:39:37;101951.47;;;9.58;71.44
47716;BME280;33476;50.984;3.538;2023-12-20T00:42:02;101954.22;;;9.53;71.41
47716;BME280;33476;50.984;3.538;2023-12-20T00:44:28;101959.50;;;9.50;71.24
47716;BME280;33476;50.984;3.538;2023-12-20T00:46:53;101959.50;;;9.52;71.25
47716;BME280;33476;50.984;3.538;2023-12-20T00:49:18;101957.72;;;9.52;71.21
47716;BME280;33476;50.984;3.538;2023-12-20T00:51:44;101956.03;;;9.50;71.27
47716;BME280;33476;50.984;3.538;2023-12-20T00:54:09;101952.47;;;9.54;70.65
47716;BME280;33476;50.984;3.538;2023-12-20T00:56:35;101956.03;;;9.50;71.09
47716;BME280;33476;50.984;3.538;2023-12-20T00:59:00;101968.28;;;9.48;70.94
47716;BME280;33476;50.984;3.538;2023-12-20T01:01:26;101966.47;;;9.50;70.81
47716;BME280;33476;50.984;3.538;2023-12-20T01:03:51;101972.53;;;9.52;70.97
47716;BME280;33476;50.984;3.538;2023-12-20T01:06:17;101968.16;;;9.52;70.52
47716;BME280;33476;50.984;3.538;2023-12-20T01:08:42;101975.09;;;9.53;70.87
47716;BME280;33476;50.984;3.538;2023-12-20T01:11:07;101967.31;;;9.52;70.79
47716;BME280;33476;50.984;3.538;2023-12-20T01:13:33;101969.94;;;9.50;70.58
47716;BME280;33476;50.984;3.538;2023-12-20T01:15:58;101976.09;;;9.48;71.00
47716;BME280;33476;50.984;3.538;2023-12-20T01:18:24;101971.78;;;9.47;70.94
47716;BME280;33476;50.984;3.538;2023-12-20T01:20:49;101966.59;;;9.45;70.95
47716;BME280;33476;50.984;3.538;2023-12-20T01:23:14;101977.94;;;9.44;71.03
47716;BME280;33476;50.984;3.538;2023-12-20T01:25:40;101979.69;;;9.42;71.07
47716;BME280;33476;50.984;3.538;2023-12-20T01:28:05;101984.03;;;9.43;71.17
47716;BME280;33476;50.984;3.538;2023-12-20T01:30:31;101980.50;;;9.46;70.68
47716;BME280;33476;50.984;3.538;2023-12-20T01:32:56;101978.78;;;9.45;70.95
47716;BME280;33476;50.984;3.538;2023-12-20T01:35:21;101975.19;;;9.49;70.96
47716;BME280;33476;50.984;3.538;2023-12-20T01:37:47;101977.88;;;9.46;71.21
47716;BME280;33476;50.984;3.538;2023-12-20T01:40:12;101971.16;;;9.37;71.21
47716;BME280;33476;50.984;3.538;2023-12-20T01:42:37;101969.44;;;9.36;71.17
47716;BME280;33476;50.984;3.538;2023-12-20T01:45:03;101969.34;;;9.39;71.35
47716;BME280;33476;50.984;3.538;2023-12-20T01:47:29;101962.25;;;9.46;71.43
47716;BME280;33476;50.984;3.538;2023-12-20T01:49:54;101967.41;;;9.47;71.39
47716;BME280;33476;50.984;3.538;2023-12-20T01:52:22;101975.22;;;9.47;71.42
47716;BME280;33476;50.984;3.538;2023-12-20T01:54:49;101968.41;;;9.43;71.71
47716;BME280;33476;50.984;3.538;2023-12-20T01:57:14;101963.19;;;9.42;71.55
47716;BME280;33476;50.984;3.538;2023-12-20T01:59:41;101969.31;;;9.41;71.45
47716;BME280;33476;50.984;3.538;2023-12-20T02:02:07;101972.91;;;9.37;71.83
47716;BME280;33476;50.984;3.538;2023-12-20T02:04:33;101972.00;;;9.38;71.96
47716;BME280;33476;50.984;3.538;2023-12-20T02:06:59;101971.06;;;9.40;72.04
47716;BME280;33476;50.984;3.538;2023-12-20T02:09:24;101972.72;;;9.44;71.59
47716;BME280;33476;50.984;3.538;2023-12-20T02:11:50;101977.00;;;9.47;71.55
47716;BME280;33476;50.984;3.538;2023-12-20T02:14:15;101979.69;;;9.44;71.63
47716;BME280;33476;50.984;3.538;2023-12-20T02:16:41;101973.63;;;9.42;71.52
47716;BME280;33476;50.984;3.538;2023-12-20T02:19:13;101979.69;;;9.44;71.58
47716;BME280;33476;50.984;3.538;2023-12-20T02:21:40;101979.59;;;9.47;71.94
47716;BME280;33476;50.984;3.538;2023-12-20T02:24:05;101978.56;;;9.54;71.76
47716;BME280;33476;50.984;3.538;2023-12-20T02:26:32;101980.25;;;9.55;71.73
47716;BME280;33476;50.984;3.538;2023-12-20T02:28:58;101983.69;;;9.57;71.77
47716;BME280;33476;50.984;3.538;2023-12-20T02:31:24;101979.31;;;9.57;71.77
47716;BME280;33476;50.984;3.538;2023-12-20T02:33:49;101983.69;;;9.57;71.70
47716;BME280;33476;50.984;3.538;2023-12-20T02:36:15;101980.22;;;9.56;71.74
47716;BME280;33476;50.984;3.538;2023-12-20T02:38:40;101971.53;;;9.56;71.82
47716;BME280;33476;50.984;3.538;2023-12-20T02:41:06;101974.25;;;9.53;71.86
47716;BME280;33476;50.984;3.538;2023-12-20T02:43:31;101976.09;;;9.48;71.57
47716;BME280;33476;50.984;3.538;2023-12-20T02:45:56;101975.16;;;9.50;71.57
47716;BME280;33476;50.984;3.538;2023-12-20T02:48:22;101975.19;;;9.49;71.71
47716;BME280;33476;50.984;3.538;2023-12-20T02:50:48;101970.88;;;9.48;71.65
47716;BME280;33476;50.984;3.538;2023-12-20T02:53:14;101976.91;;;9.50;71.68
47716;BME280;33476;50.984;3.538;2023-12-20T02:55:39;101976.13;;;9.46;71.54
47716;BME280;33476;50.984;3.538;2023-12-20T02:58:05;101958.78;;;9.45;71.33
47716;BME280;33476;50.984;3.538;2023-12-20T03:00:30;101958.03;;;9.40;71.69
47716;BME280;33476;50.984;3.538;2023-12-20T03:02:56;101953.72;;;9.39;71.47
47716;BME280;33476;50.984;3.538;2023-12-20T03:05:21;101952.94;;;9.34;71.41
47716;BME280;33476;50.984;3.538;2023-12-20T03:07:46;101953.09;;;9.29;71.42
47716;BME280;33476;50.984;3.538;2023-12-20T03:10:12;101957.31;;;9.34;71.51
47716;BME280;33476;50.984;3.538;2023-12-20T03:12:37;101953.13;;;9.26;71.86
47716;BME280;33476;50.984;3.538;2023-12-20T03:15:02;101964.47;;;9.25;71.93
47716;BME280;33476;50.984;3.538;2023-12-20T03:17:28;101963.50;;;9.29;71.75
47716;BME280;33476;50.984;3.538;2023-12-20T03:19:53;101968.59;;;9.36;71.53
47716;BME280;33476;50.984;3.538;2023-12-20T03:22:19;101967.59;;;9.40;71.20
47716;BME280;33476;50.984;3.538;2023-12-20T03:24:44;101963.25;;;9.40;71.01
47716;BME280;33476;50.984;3.538;2023-12-20T03:27:09;101966.03;;;9.33;71.17
47716;BME280;33476;50.984;3.538;2023-12-20T03:29:35;101965.19;;;9.32;71.04
47716;BME280;33476;50.984;3.538;2023-12-20T03:32:00;101968.69;;;9.31;70.84
47716;BME280;33476;50.984;3.538;2023-12-20T03:34:26;101968.81;;;9.25;71.13
47716;BME280;33476;50.984;3.538;2023-12-20T03:36:51;101967.97;;;9.24;71.18
47716;BME280;33476;50.984;3.538;2023-12-20T03:39:17;101973.19;;;9.24;70.88
47716;BME280;33476;50.984;3.538;2023-12-20T03:41:42;101977.59;;;9.22;70.67
47716;BME280;33476;50.984;3.538;2023-12-20T03:44:08;101982.72;;;9.25;70.76
47716;BME280;33476;50.984;3.538;2023-12-20T03:46:33;101977.50;;;9.25;71.16
47716;BME280;33476;50.984;3.538;2023-12-20T03:48:58;101976.59;;;9.26;70.77
47716;BME280;33476;50.984;3.538;2023-12-20T03:51:24;101969.75;;;9.22;70.92
47716;BME280;33476;50.984;3.538;2023-12-20T03:53:49;101974.16;;;9.20;71.07
47716;BME280;33476;50.984;3.538;2023-12-20T03:56:14;101960.38;;;9.15;70.93
47716;BME280;33476;50.984;3.538;2023-12-20T03:58:40;101962.13;;;9.15;70.96
47716;BME280;33476;50.984;3.538;2023-12-20T04:01:14;101967.34;;;9.15;70.98
47716;BME280;33476;50.984;3.538;2023-12-20T04:03:39;101961.19;;;9.17;70.48
47716;BME280;33476;50.984;3.538;2023-12-20T04:06:05;101967.41;;;9.12;70.71
47716;BME280;33476;50.984;3.538;2023-12-20T04:08:31;101964.94;;;9.06;71.07
47716;BME280;33476;50.984;3.538;2023-12-20T04:10:56;101959.81;;;9.03;70.96
47716;BME280;33476;50.984;3.538;2023-12-20T04:13:22;101962.44;;;9.03;70.70
47716;BME280;33476;50.984;3.538;2023-12-20T04:15:47;101957.22;;;9.01;70.86
47716;BME280;33476;50.984;3.538;2023-12-20T04:18:15;101967.88;;;8.92;70.41
47716;BME280;33476;50.984;3.538;2023-12-20T04:20:40;101973.28;;;8.83;71.25
47716;BME280;33476;50.984;3.538;2023-12-20T04:23:05;101979.31;;;8.86;71.17
47716;BME280;33476;50.984;3.538;2023-12-20T04:25:31;101969.81;;;8.82;70.96
47716;BME280;33476;50.984;3.538;2023-12-20T04:27:56;101978.56;;;8.80;71.45
47716;BME280;33476;50.984;3.538;2023-12-20T04:30:21;101974.25;;;8.79;71.21
47716;BME280;33476;50.984;3.538;2023-12-20T04:32:47;101973.41;;;8.78;71.40
47716;BME280;33476;50.984;3.538;2023-12-20T04:35:12;101969.94;;;8.78;70.96
47716;BME280;33476;50.984;3.538;2023-12-20T04:37:37;101982.06;;;8.79;71.13
47716;BME280;33476;50.984;3.538;2023-12-20T04:40:03;101974.94;;;8.87;70.96
47716;BME280;33476;50.984;3.538;2023-12-20T04:42:30;101974.09;;;8.86;70.71
47716;BME280;33476;50.984;3.538;2023-12-20T04:44:55;101969.81;;;8.82;70.49
47716;BME280;33476;50.984;3.538;2023-12-20T04:47:21;101971.66;;;8.79;70.76
47716;BME280;33476;50.984;3.538;2023-12-20T04:49:46;101959.53;;;8.78;70.86
47716;BME280;33476;50.984;3.538;2023-12-20T04:52:12;101964.75;;;8.76;70.94
47716;BME280;33476;50.984;3.538;2023-12-20T04:54:37;101969.22;;;8.71;70.93
47716;BME280;33476;50.984;3.538;2023-12-20T04:57:03;101970.13;;;8.68;71.21
47716;BME280;33476;50.984;3.538;2023-12-20T04:59:28;101971.00;;;8.69;70.91
47716;BME280;33476;50.984;3.538;2023-12-20T05:01:54;101973.66;;;8.66;71.07
47716;BME280;33476;50.984;3.538;2023-12-20T05:04:19;101985.81;;;8.65;71.14
47716;BME280;33476;50.984;3.538;2023-12-20T05:06:45;101988.47;;;8.64;70.96
47716;BME280;33476;50.984;3.538;2023-12-20T05:09:10;101972.91;;;8.59;71.29
47716;BME280;33476;50.984;3.538;2023-12-20T05:11:36;101975.59;;;8.56;71.48
47716;BME280;33476;50.984;3.538;2023-12-20T05:14:01;101977.28;;;8.59;71.28
47716;BME280;33476;50.984;3.538;2023-12-20T05:16:27;101968.53;;;8.63;71.21
47716;BME280;33476;50.984;3.538;2023-12-20T05:18:52;101971.97;;;8.63;70.88
47716;BME280;33476;50.984;3.538;2023-12-20T05:21:18;101976.22;;;8.69;71.25
47716;BME280;33476;50.984;3.538;2023-12-20T05:23:43;101978.84;;;8.66;71.48
47716;BME280;33476;50.984;3.538;2023-12-20T05:26:09;101976.25;;;8.66;70.83
47716;BME280;33476;50.984;3.538;2023-12-20T05:28:34;101972.72;;;8.68;71.41
47716;BME280;33476;50.984;3.538;2023-12-20T05:30:59;101971.78;;;8.72;70.76
47716;BME280;33476;50.984;3.538;2023-12-20T05:33:25;101971.72;;;8.74;70.71
47716;BME280;33476;50.984;3.538;2023-12-20T05:35:50;101973.44;;;8.75;71.44
47716;BME280;33476;50.984;3.538;2023-12-20T05:38:15;101969.03;;;8.79;71.01
47716;BME280;33476;50.984;3.538;2023-12-20T05:40:41;101978.59;;;8.78;70.82
47716;BME280;33476;50.984;3.538;2023-12-20T05:43:07;101979.44;;;8.80;71.22
47716;BME280;33476;50.984;3.538;2023-12-20T05:45:32;101978.78;;;8.70;71.45
47716;BME280;33476;50.984;3.538;2023-12-20T05:47:57;101976.28;;;8.64;71.67
47716;BME280;33476;50.984;3.538;2023-12-20T05:50:24;101974.50;;;8.66;71.64
47716;BME280;33476;50.984;3.538;2023-12-20T05:52:49;101981.31;;;8.73;71.22
47716;BME280;33476;50.984;3.538;2023-12-20T05:55:15;101976.97;;;8.72;71.14
47716;BME280;33476;50.984;3.538;2023-12-20T05:57:40;101968.41;;;8.67;71.17
47716;BME280;33476;50.984;3.538;2023-12-20T06:00:09;101970.16;;;8.67;71.56
47716;BME280;33476;50.984;3.538;2023-12-20T06:02:34;101972.84;;;8.64;71.49
47716;BME280;33476;50.984;3.538;2023-12-20T06:05:02;101973.69;;;8.64;71.20
47716;BME280;33476;50.984;3.538;2023-12-20T06:07:28;101980.66;;;8.64;71.46
47716;BME280;33476;50.984;3.538;2023-12-20T06:09:53;101980.88;;;8.52;71.34
47716;BME280;33476;50.984;3.538;2023-12-20T06:12:18;101975.69;;;8.53;71.77
47716;BME280;33476;50.984;3.538;2023-12-20T06:14:44;101973.00;;;8.56;71.10
47716;BME280;33476;50.984;3.538;2023-12-20T06:17:09;101966.03;;;8.57;71.30
47716;BME280;33476;50.984;3.538;2023-12-20T06:19:34;101965.16;;;8.58;70.97
47716;BME280;33476;50.984;3.538;2023-12-20T06:22:00;101967.88;;;8.53;71.40
47716;BME280;33476;50.984;3.538;2023-12-20T06:24:25;101973.88;;;8.55;71.05
47716;BME280;33476;50.984;3.538;2023-12-20T06:26:53;101976.50;;;8.55;71.20
47716;BME280;33476;50.984;3.538;2023-12-20T06:29:19;101965.09;;;8.59;70.56
47716;BME280;33476;50.984;3.538;2023-12-20T06:31:44;101975.50;;;8.61;70.98
47716;BME280;33476;50.984;3.538;2023-12-20T06:34:10;101972.06;;;8.59;71.07
47716;BME280;33476;50.984;3.538;2023-12-20T06:36:35;101979.84;;;8.60;70.61
47716;BME280;33476;50.984;3.538;2023-12-20T06:39:01;101968.56;;;8.61;70.93
47716;BME280;33476;50.984;3.538;2023-12-20T06:41:26;101972.03;;;8.60;70.41
47716;BME280;33476;50.984;3.538;2023-12-20T06:43:51;101969.47;;;8.59;70.68
47716;BME280;33476;50.984;3.538;2023-12-20T06:46:18;101979.84;;;8.60;70.94
47716;BME280;33476;50.984;3.538;2023-12-20T06:48:43;101973.78;;;8.61;70.79
47716;BME280;33476;50.984;3.538;2023-12-20T06:51:14;101986.09;;;8.52;70.71
47716;BME280;33476;50.984;3.538;2023-12-20T06:53:39;101980.16;;;8.47;70.88
47716;BME280;33476;50.984;3.538;2023-12-20T06:56:05;101974.09;;;8.46;70.68
47716;BME280;33476;50.984;3.538;2023-12-20T06:58:30;101965.38;;;8.47;70.68
47716;BME280;33476;50.984;3.538;2023-12-20T07:00:56;101959.28;;;8.48;71.28
47716;BME280;33476;50.984;3.538;2023-12-20T07:03:21;101951.44;;;8.50;71.14
47716;BME280;33476;50.984;3.538;2023-12-20T07:05:46;101957.50;;;8.50;70.67
47716;BME280;33476;50.984;3.538;2023-12-20T07:08:12;101956.69;;;8.48;70.58
47716;BME280;33476;50.984;3.538;2023-12-20T07:10:39;101954.03;;;8.50;70.73
47716;BME280;33476;50.984;3.538;2023-12-20T07:13:04;101956.59;;;8.51;70.98
47716;BME280;33476;50.984;3.538;2023-12-20T07:15:30;101947.91;;;8.52;70.42
47716;BME280;33476;50.984;3.538;2023-12-20T07:17:55;101944.31;;;8.58;70.30
47716;BME280;33476;50.984;3.538;2023-12-20T07:20:21;101954.72;;;8.58;70.71
47716;BME280;33476;50.984;3.538;2023-12-20T07:22:46;101963.34;;;8.61;70.01
47716;BME280;33476;50.984;3.538;2023-12-20T07:25:12;101964.25;;;8.59;70.19
47716;BME280;33476;50.984;3.538;2023-12-20T07:27:37;101959.31;;;8.47;70.89
47716;BME280;33476;50.984;3.538;2023-12-20T07:30:03;101954.16;;;8.43;70.70
47716;BME280;33476;50.984;3.538;2023-12-20T07:32:28;101956.00;;;8.38;71.32
47716;BME280;33476;50.984;3.538;2023-12-20T07:34:53;101955.16;;;8.38;71.14
47716;BME280;33476;50.984;3.538;2023-12-20T07:37:20;101957.72;;;8.39;71.17
47716;BME280;33476;50.984;3.538;2023-12-20T07:39:46;101954.22;;;8.40;70.74
47716;BME280;33476;50.984;3.538;2023-12-20T07:42:11;101967.16;;;8.43;70.94
47716;BME280;33476;50.984;3.538;2023-12-20T07:44:37;101969.72;;;8.47;70.43
47716;BME280;33476;50.984;3.538;2023-12-20T07:47:02;101970.59;;;8.47;70.90
47716;BME280;33476;50.984;3.538;2023-12-20T07:49:27;101979.41;;;8.40;70.34
47716;BME280;33476;50.984;3.538;2023-12-20T07:51:53;101976.81;;;8.40;70.52
47716;BME280;33476;50.984;3.538;2023-12-20T07:54:18;101982.88;;;8.40;70.71
47716;BME280;33476;50.984;3.538;2023-12-20T07:56:43;101982.03;;;8.38;70.74
47716;BME280;33476;50.984;3.538;2023-12-20T07:59:09;101983.84;;;8.36;70.74
47716;BME280;33476;50.984;3.538;2023-12-20T08:01:34;101989.03;;;8.36;71.12
47716;BME280;33476;50.984;3.538;2023-12-20T08:03:59;101979.47;;;8.35;70.92
47716;BME280;33476;50.984;3.538;2023-12-20T08:06:25;101980.31;;;8.39;70.97
47716;BME280;33476;50.984;3.538;2023-12-20T08:08:50;101974.97;;;8.43;70.47
47716;BME280;33476;50.984;3.538;2023-12-20T08:11:16;101975.91;;;8.41;71.01
47716;BME280;33476;50.984;3.538;2023-12-20T08:13:41;101981.16;;;8.39;70.55
47716;BME280;33476;50.984;3.538;2023-12-20T08:16:06;101985.50;;;8.39;71.06
47716;BME280;33476;50.984;3.538;2023-12-20T08:18:32;101975.91;;;8.41;70.46
47716;BME280;33476;50.984;3.538;2023-12-20T08:20:57;101987.06;;;8.48;71.00
47716;BME280;33476;50.984;3.538;2023-12-20T08:23:23;101986.13;;;8.50;70.41
47716;BME280;33476;50.984;3.538;2023-12-20T08:25:48;101980.00;;;8.54;70.87
47716;BME280;33476;50.984;3.538;2023-12-20T08:28:14;101978.28;;;8.53;70.60
47716;BME280;33476;50.984;3.538;2023-12-20T08:30:39;101988.69;;;8.52;70.67
47716;BME280;33476;50.984;3.538;2023-12-20T08:33:06;101975.78;;;8.47;70.67
47716;BME280;33476;50.984;3.538;2023-12-20T08:35:36;101978.41;;;8.47;70.71
47716;BME280;33476;50.984;3.538;2023-12-20T08:38:01;101975.88;;;8.44;70.94
47716;BME280;33476;50.984;3.538;2023-12-20T08:40:27;101969.66;;;8.50;70.95
47716;BME280;33476;50.984;3.538;2023-12-20T08:42:52;101959.53;;;8.76;70.57
47716;BME280;33476;50.984;3.538;2023-12-20T08:45:17;101962.06;;;9.53;68.67
47716;BME280;33476;50.984;3.538;2023-12-20T08:47:43;101953.22;;;10.54;66.90
47716;BME280;33476;50.984;3.538;2023-12-20T08:50:10;101951.22;;;11.44;64.79
47716;BME280;33476;50.984;3.538;2023-12-20T08:52:35;101958.22;;;11.95;63.63
47716;BME280;33476;50.984;3.538;2023-12-20T08:55:01;101957.84;;;12.29;63.96
47716;BME280;33476;50.984;3.538;2023-12-20T08:57:26;101957.94;;;12.73;64.08
47716;BME280;33476;50.984;3.538;2023-12-20T08:59:52;101957.28;;;12.90;62.54
47716;BME280;33476;50.984;3.538;2023-12-20T09:02:17;101965.88;;;12.48;63.30
47716;BME280;33476;50.984;3.538;2023-12-20T09:04:43;101962.41;;;12.01;63.83
47716;BME280;33476;50.984;3.538;2023-12-20T09:07:41;101985.31;;;11.41;65.03
47716;BME280;33476;50.984;3.538;2023-12-20T09:10:06;101986.16;;;11.15;65.33
47716;BME280;33476;50.984;3.538;2023-12-20T09:12:32;101979.88;;;10.94;65.42
47716;BME280;33476;50.984;3.538;2023-12-20T09:14:57;101981.41;;;10.72;65.69
47716;BME280;33476;50.984;3.538;2023-12-20T09:17:23;101982.75;;;10.56;66.11
47716;BME280;33476;50.984;3.538;2023-12-20T09:19:48;101971.91;;;10.40;66.49
47716;BME280;33476;50.984;3.538;2023-12-20T09:22:14;101984.22;;;10.36;66.61
47716;BME280;33476;50.984;3.538;2023-12-20T09:24:39;101973.44;;;10.47;66.53
47716;BME280;33476;50.984;3.538;2023-12-20T09:27:05;101963.84;;;10.77;65.99
47716;BME280;33476;50.984;3.538;2023-12-20T09:29:31;101962.31;;;10.98;65.72
47716;BME280;33476;50.984;3.538;2023-12-20T09:31:56;101965.09;;;10.93;65.59
47716;BME280;33476;50.984;3.538;2023-12-20T09:34:23;101954.75;;;10.89;65.56
47716;BME280;33476;50.984;3.538;2023-12-20T09:36:48;101950.53;;;11.13;65.74
47716;BME280;33476;50.984;3.538;2023-12-20T09:39:14;101953.44;;;11.30;65.12
47716;BME280;33476;50.984;3.538;2023-12-20T09:41:44;101956.84;;;11.32;65.02
47716;BME280;33476;50.984;3.538;2023-12-20T09:44:16;101964.81;;;11.29;65.11
47716;BME280;33476;50.984;3.538;2023-12-20T09:46:44;101964.22;;;11.21;65.46
47716;BME280;33476;50.984;3.538;2023-12-20T09:49:11;101959.41;;;11.07;65.45
47716;BME280;33476;50.984;3.538;2023-12-20T09:51:37;101958.22;;;10.89;65.85
47716;BME280;33476;50.984;3.538;2023-12-20T09:54:04;101961.22;;;10.77;66.02
47716;BME280;33476;50.984;3.538;2023-12-20T09:56:30;101964.19;;;10.65;66.04
47716;BME280;33476;50.984;3.538;2023-12-20T09:58:55;101965.34;;;10.56;66.34
47716;BME280;33476;50.984;3.538;2023-12-20T10:01:22;101965.28;;;10.58;66.60
47716;BME280;33476;50.984;3.538;2023-12-20T10:03:47;101969.69;;;10.56;66.39
47716;BME280;33476;50.984;3.538;2023-12-20T10:06:13;101969.94;;;10.48;66.62
47716;BME280;33476;50.984;3.538;2023-12-20T10:08:39;101955.22;;;10.46;66.75
47716;BME280;33476;50.984;3.538;2023-12-20T10:11:05;101962.25;;;10.42;66.98
47716;BME280;33476;50.984;3.538;2023-12-20T10:13:30;101958.00;;;10.39;67.00
47716;BME280;33476;50.984;3.538;2023-12-20T10:15:56;101949.47;;;10.33;67.03
47716;BME280;33476;50.984;3.538;2023-12-20T10:18:22;101947.91;;;10.27;67.45
47716;BME280;33476;50.984;3.538;2023-12-20T10:20:48;101947.91;;;10.27;67.43
47716;BME280;33476;50.984;3.538;2023-12-20T10:23:14;101946.28;;;10.23;67.58
47716;BME280;33476;50.984;3.538;2023-12-20T10:25:40;101940.22;;;10.21;67.70
47716;BME280;33476;50.984;3.538;2023-12-20T10:28:14;101929.88;;;10.18;67.76
47716;BME280;33476;50.984;3.538;2023-12-20T10:30:42;101931.53;;;10.21;67.85
47716;BME280;33476;50.984;3.538;2023-12-20T10:33:09;101927.03;;;10.27;67.88
47716;BME280;33476;50.984;3.538;2023-12-20T10:35:35;101921.69;;;10.30;67.96
47716;BME280;33476;50.984;3.538;2023-12-20T10:38:03;101920.78;;;10.31;68.02
47716;BME280;33476;50.984;3.538;2023-12-20T10:40:30;101915.44;;;10.36;67.93
47716;BME280;33476;50.984;3.538;2023-12-20T10:42:56;101931.03;;;10.39;68.06
47716;BME280;33476;50.984;3.538;2023-12-20T10:45:22;101932.66;;;10.43;67.97
47716;BME280;33476;50.984;3.538;2023-12-20T10:47:50;101926.56;;;10.43;68.08
47716;BME280;33476;50.984;3.538;2023-12-20T10:50:17;101929.13;;;10.44;68.20
47716;BME280;33476;50.984;3.538;2023-12-20T10:52:44;101922.28;;;10.40;67.96
47716;BME280;33476;50.984;3.538;2023-12-20T10:55:10;101910.84;;;10.44;68.13
47716;BME280;33476;50.984;3.538;2023-12-20T10:57:36;101906.38;;;10.48;68.16
47716;BME280;33476;50.984;3.538;2023-12-20T11:00:02;101922.22;;;10.43;68.29
47716;BME280;33476;50.984;3.538;2023-12-20T11:02:38;101922.16;;;10.45;68.43
47716;BME280;33476;50.984;3.538;2023-12-20T11:05:18;101919.38;;;10.49;68.54
47716;BME280;33476;50.984;3.538;2023-12-20T11:08:12;101912.38;;;10.51;68.65
47716;BME280;33476;50.984;3.538;2023-12-20T11:10:51;101902.75;;;10.53;68.24
47716;BME280;33476;50.984;3.538;2023-12-20T11:13:21;101901.94;;;10.51;68.32
47716;BME280;33476;50.984;3.538;2023-12-20T11:15:49;101907.84;;;10.56;68.50
47716;BME280;33476;50.984;3.538;2023-12-20T11:18:15;101902.50;;;10.61;68.85
47716;BME280;33476;50.984;3.538;2023-12-20T11:20:41;101894.63;;;10.62;68.63
47716;BME280;33476;50.984;3.538;2023-12-20T11:23:08;101904.22;;;10.62;68.77
47716;BME280;33476;50.984;3.538;2023-12-20T11:25:52;101901.66;;;10.60;68.93
47716;BME280;33476;50.984;3.538;2023-12-20T11:28:22;101896.28;;;10.65;68.80
47716;BME280;33476;50.984;3.538;2023-12-20T11:30:50;101898.88;;;10.65;69.00
47716;BME280;33476;50.984;3.538;2023-12-20T11:33:16;101891.09;;;10.63;68.59
47716;BME280;33476;50.984;3.538;2023-12-20T11:35:46;101881.50;;;10.64;68.94
47716;BME280;33476;50.984;3.538;2023-12-20T11:38:13;101875.38;;;10.65;69.12
47716;BME280;33476;50.984;3.538;2023-12-20T11:40:41;101885.69;;;10.69;68.90
47716;BME280;33476;50.984;3.538;2023-12-20T11:43:06;101877.84;;;10.69;69.05
47716;BME280;33476;50.984;3.538;2023-12-20T11:45:33;101864.78;;;10.69;68.88
47716;BME280;33476;50.984;3.538;2023-12-20T11:48:01;101873.47;;;10.70;69.01
47716;BME280;33476;50.984;3.538;2023-12-20T11:50:27;101873.31;;;10.75;69.10
47716;BME280;33476;50.984;3.538;2023-12-20T11:52:53;101863.63;;;10.78;68.87
47716;BME280;33476;50.984;3.538;2023-12-20T11:55:21;101867.06;;;10.80;68.99
47716;BME280;33476;50.984;3.538;2023-12-20T11:57:46;101865.22;;;10.82;68.89
47716;BME280;33476;50.984;3.538;2023-12-20T12:00:13;101846.94;;;10.82;68.91
47716;BME280;33476;50.984;3.538;2023-12-20T12:02:39;101839.94;;;10.84;68.95
47716;BME280;33476;50.984;3.538;2023-12-20T12:05:05;101845.03;;;10.87;68.87
47716;BME280;33476;50.984;3.538;2023-12-20T12:07:31;101849.41;;;10.87;69.15
47716;BME280;33476;50.984;3.538;2023-12-20T12:09:57;101841.53;;;10.88;69.12
47716;BME280;33476;50.984;3.538;2023-12-20T12:12:22;101839.03;;;10.85;69.15
47716;BME280;33476;50.984;3.538;2023-12-20T12:14:49;101836.28;;;10.88;69.26
47716;BME280;33476;50.984;3.538;2023-12-20T12:17:14;101835.25;;;10.94;69.34
47716;BME280;33476;50.984;3.538;2023-12-20T12:19:41;101844.44;;;11.06;69.22
47716;BME280;33476;50.984;3.538;2023-12-20T12:22:14;101835.78;;;11.04;69.29
47716;BME280;33476;50.984;3.538;2023-12-20T12:24:41;101839.91;;;11.11;69.21
47716;BME280;33476;50.984;3.538;2023-12-20T12:27:07;101839.84;;;11.12;69.23
47716;BME280;33476;50.984;3.538;2023-12-20T12:29:33;101840.69;;;11.13;69.09
47716;BME280;33476;50.984;3.538;2023-12-20T12:31:59;101832.88;;;11.13;69.04
47716;BME280;33476;50.984;3.538;2023-12-20T12:34:27;101829.41;;;11.12;69.47
47716;BME280;33476;50.984;3.538;2023-12-20T12:36:53;101819.66;;;11.16;69.38
47716;BME280;33476;50.984;3.538;2023-12-20T12:39:18;101823.00;;;11.21;69.18
47716;BME280;33476;50.984;3.538;2023-12-20T12:41:44;101818.47;;;11.26;69.08
47716;BME280;33476;50.984;3.538;2023-12-20T12:44:09;101815.88;;;11.24;69.23
47716;BME280;33476;50.984;3.538;2023-12-20T12:46:34;101808.03;;;11.24;69.18
47716;BME280;33476;50.984;3.538;2023-12-20T12:49:00;101806.97;;;11.30;69.26
47716;BME280;33476;50.984;3.538;2023-12-20T12:51:26;101795.53;;;11.34;69.05